createdAt,value
2023-12-04T00:01:17.846Z,4.54
2023-12-04T00:03:45.384Z,4.70
2023-12-04T00:06:13.022Z,4.40
2023-12-04T00:08:40.835Z,4.78
2023-12-04T00:11:08.593Z,4.82
2023-12-04T00:13:36.482Z,4.74
2023-12-04T00:16:04.255Z,4.78
2023-12-04T00:18:31.977Z,4.76
2023-12-04T00:20:59.360Z,4.71
2023-12-04T00:23:26.648Z,4.92
2023-12-04T00:25:55.654Z,4.83
2023-12-04T00:28:22.956Z,4.84
2023-12-04T00:30:50.233Z,4.97
2023-12-04T00:33:17.727Z,4.98
2023-12-04T00:35:45.210Z,5.13
2023-12-04T00:38:25.099Z,5.17
2023-12-04T00:40:52.658Z,5.30
2023-12-04T00:43:19.737Z,5.27
2023-12-04T00:45:47.643Z,5.25
2023-12-04T00:48:14.905Z,5.12
2023-12-04T00:50:42.134Z,5.14
2023-12-04T00:53:09.450Z,5.12
2023-12-04T00:55:36.699Z,5.13
2023-12-04T00:58:04.273Z,4.99
2023-12-04T01:00:31.476Z,5.03
2023-12-04T01:02:59.401Z,5.03
2023-12-04T01:05:26.672Z,5.09
2023-12-04T01:07:53.970Z,5.56
2023-12-04T01:10:21.292Z,5.25
2023-12-04T01:12:48.693Z,5.18
2023-12-04T01:15:17.406Z,5.34
2023-12-04T01:17:44.754Z,5.30
2023-12-04T01:20:12.099Z,5.22
2023-12-04T01:22:39.293Z,5.36
2023-12-04T01:25:07.079Z,5.41
2023-12-04T01:27:36.394Z,5.38
2023-12-04T01:30:03.917Z,5.46
2023-12-04T01:32:31.414Z,5.64
2023-12-04T01:34:58.716Z,5.50
2023-12-04T01:37:25.887Z,5.37
2023-12-04T01:39:53.135Z,5.44
2023-12-04T01:42:20.548Z,5.86
2023-12-04T01:45:09.309Z,5.77
2023-12-04T01:47:36.723Z,5.57
2023-12-04T01:50:05.343Z,5.44
2023-12-04T01:52:32.920Z,5.22
2023-12-04T01:55:00.534Z,5.27
2023-12-04T01:57:27.843Z,5.43
2023-12-04T02:00:02.708Z,5.66
2023-12-04T02:02:43.175Z,5.68
2023-12-04T02:05:10.671Z,5.62
2023-12-04T02:07:38.087Z,5.57
2023-12-04T02:10:07.382Z,5.45
2023-12-04T02:12:34.772Z,5.50
2023-12-04T02:15:02.320Z,5.55
2023-12-04T02:17:30.204Z,5.54
2023-12-04T02:19:58.252Z,5.47
2023-12-04T02:22:25.471Z,5.55
2023-12-04T02:24:52.784Z,5.62
2023-12-04T02:27:26.742Z,5.66
2023-12-04T02:30:00.671Z,5.56
2023-12-04T02:32:30.406Z,5.70
2023-12-04T02:35:01.153Z,5.73
2023-12-04T02:37:29.095Z,5.59
2023-12-04T02:39:56.526Z,5.71
2023-12-04T02:42:26.111Z,5.60
2023-12-04T02:44:53.449Z,5.69
2023-12-04T02:47:20.851Z,5.81
2023-12-04T02:49:51.027Z,5.61
2023-12-04T02:52:27.255Z,5.63
2023-12-04T02:54:54.946Z,5.72
2023-12-04T02:57:22.808Z,5.94
2023-12-04T02:59:49.995Z,5.74
2023-12-04T03:02:17.157Z,5.67
2023-12-04T03:04:47.632Z,5.70
2023-12-04T03:07:15.040Z,5.69
2023-12-04T03:09:48.603Z,5.72
2023-12-04T03:12:19.917Z,5.63
2023-12-04T03:14:47.024Z,5.65
2023-12-04T03:17:14.174Z,5.72
2023-12-04T03:19:41.362Z,5.62
2023-12-04T03:22:08.709Z,5.82
2023-12-04T03:24:36.175Z,5.81
2023-12-04T03:27:03.568Z,5.68
2023-12-04T03:29:30.845Z,5.71
2023-12-04T03:31:58.809Z,5.86
2023-12-04T03:34:26.063Z,5.68
2023-12-04T03:36:53.372Z,5.62
2023-12-04T03:39:20.568Z,5.67
2023-12-04T03:41:48.521Z,5.70
2023-12-04T03:44:15.715Z,5.58
2023-12-04T03:46:43.315Z,5.57
2023-12-04T03:49:10.596Z,5.78
2023-12-04T03:51:38.018Z,5.71
2023-12-04T03:54:05.259Z,5.79
2023-12-04T03:56:32.412Z,5.70
2023-12-04T03:58:59.556Z,5.66
2023-12-04T04:01:27.036Z,5.59
2023-12-04T04:03:55.149Z,5.66
2023-12-04T04:06:22.296Z,5.56
2023-12-04T04:08:49.475Z,5.62
2023-12-04T04:11:16.643Z,5.63
2023-12-04T04:13:43.806Z,5.58
2023-12-04T04:16:16.036Z,5.38
2023-12-04T04:18:44.243Z,5.36
2023-12-04T04:21:11.580Z,5.29
2023-12-04T04:23:38.853Z,5.31
2023-12-04T04:26:06.212Z,5.55
2023-12-04T04:28:33.928Z,5.36
2023-12-04T04:31:01.154Z,5.25
2023-12-04T04:33:28.489Z,5.15
2023-12-04T04:35:55.658Z,5.13
2023-12-04T04:38:23.011Z,5.28
2023-12-04T04:40:50.206Z,5.02
2023-12-04T04:43:17.542Z,5.09
2023-12-04T04:45:45.016Z,5.17
2023-12-04T04:48:12.235Z,5.13
2023-12-04T04:50:39.417Z,4.97
2023-12-04T04:53:06.600Z,5.00
2023-12-04T04:55:47.123Z,4.81
2023-12-04T04:58:17.340Z,4.77
2023-12-04T05:00:45.247Z,4.94
2023-12-04T05:03:12.452Z,5.04
2023-12-04T05:05:39.815Z,4.98
2023-12-04T05:08:07.075Z,4.90
2023-12-04T05:10:34.268Z,5.00
2023-12-04T05:13:01.531Z,4.69
2023-12-04T05:15:28.767Z,4.81
2023-12-04T05:17:56.078Z,4.72
2023-12-04T05:20:23.500Z,4.64
2023-12-04T05:22:50.726Z,4.52
2023-12-04T05:25:17.951Z,4.74
2023-12-04T05:27:46.875Z,4.75
2023-12-04T05:30:15.088Z,4.97
2023-12-04T05:32:42.554Z,5.11
2023-12-04T05:35:09.791Z,5.05
2023-12-04T05:37:37.013Z,4.80
2023-12-04T05:40:06.002Z,4.92
2023-12-04T05:42:33.399Z,4.98
2023-12-04T05:45:01.774Z,4.98
2023-12-04T05:47:29.022Z,5.05
2023-12-04T05:49:56.379Z,4.92
2023-12-04T05:52:23.622Z,4.67
2023-12-04T05:54:51.029Z,4.83
2023-12-04T05:57:18.356Z,4.55
2023-12-04T05:59:45.886Z,4.75
2023-12-04T06:02:14.119Z,4.88
2023-12-04T06:04:41.514Z,4.90
2023-12-04T06:07:08.857Z,4.88
2023-12-04T06:09:37.879Z,4.91
2023-12-04T06:12:09.231Z,4.91
2023-12-04T06:14:36.766Z,4.94
2023-12-04T06:17:04.298Z,5.03
2023-12-04T06:19:35.435Z,4.94
2023-12-04T06:22:02.709Z,4.88
2023-12-04T06:24:30.163Z,4.82
2023-12-04T06:26:58.672Z,4.98
2023-12-04T06:29:27.180Z,5.06
2023-12-04T06:31:54.991Z,5.03
2023-12-04T06:34:22.803Z,5.05
2023-12-04T06:36:50.389Z,5.03
2023-12-04T06:39:18.301Z,4.85
2023-12-04T06:41:47.775Z,4.88
2023-12-04T06:44:15.439Z,4.83
2023-12-04T06:46:44.462Z,4.85
2023-12-04T06:49:18.185Z,5.01
2023-12-04T06:51:53.522Z,4.95
2023-12-04T06:54:20.771Z,4.95
2023-12-04T06:56:48.429Z,4.87
2023-12-04T06:59:15.663Z,4.79
2023-12-04T07:01:47.355Z,4.66
2023-12-04T07:07:09.863Z,4.99
2023-12-04T07:09:37.498Z,4.95
2023-12-04T07:12:05.062Z,5.10
2023-12-04T07:14:32.454Z,5.14
2023-12-04T07:17:01.962Z,5.25
2023-12-04T07:19:30.119Z,5.41
2023-12-04T07:21:57.454Z,5.24
2023-12-04T07:24:25.009Z,5.43
2023-12-04T07:27:06.120Z,5.19
2023-12-04T07:29:56.935Z,5.18
2023-12-04T07:32:31.079Z,5.23
2023-12-04T07:35:30.918Z,5.50
2023-12-04T07:38:09.019Z,5.38
2023-12-04T07:40:37.992Z,5.36
2023-12-04T07:43:05.721Z,5.41
2023-12-04T07:45:37.910Z,5.54
2023-12-04T07:48:19.611Z,5.38
2023-12-04T07:50:47.203Z,5.49
2023-12-04T07:53:14.959Z,5.58
2023-12-04T07:55:42.158Z,5.52
2023-12-04T07:58:09.649Z,5.72
2023-12-04T08:00:37.060Z,5.44
2023-12-04T08:03:04.359Z,5.39
2023-12-04T08:05:33.085Z,5.30
2023-12-04T08:08:00.362Z,5.49
2023-12-04T08:10:27.996Z,5.58
2023-12-04T08:12:55.463Z,5.55
2023-12-04T08:15:22.712Z,5.63
2023-12-04T08:17:50.009Z,5.61
2023-12-04T08:20:24.283Z,5.64
2023-12-04T08:22:56.092Z,5.63
2023-12-04T08:25:23.360Z,5.53
2023-12-04T08:27:51.009Z,5.80
2023-12-04T08:30:19.304Z,5.69
2023-12-04T08:32:46.591Z,5.68
2023-12-04T08:35:13.918Z,5.53
2023-12-04T08:37:41.402Z,5.61
2023-12-04T08:40:09.618Z,5.63
2023-12-04T08:42:36.927Z,5.63
2023-12-04T08:45:07.089Z,5.32
2023-12-04T08:47:34.903Z,5.40
2023-12-04T08:50:02.522Z,5.56
2023-12-04T08:52:29.839Z,5.65
2023-12-04T08:54:57.921Z,5.87
2023-12-04T08:57:25.108Z,5.61
2023-12-04T08:59:52.472Z,5.71
2023-12-04T09:02:19.881Z,5.80
2023-12-04T09:04:47.281Z,5.88
2023-12-04T09:09:47.565Z,6.11
2023-12-04T09:12:15.586Z,6.25
2023-12-04T09:14:42.820Z,6.34
2023-12-04T09:17:10.135Z,6.22
2023-12-04T09:19:37.603Z,5.99
2023-12-04T09:22:12.608Z,6.19
2023-12-04T09:24:45.708Z,6.12
2023-12-04T09:27:13.165Z,6.13
2023-12-04T09:29:41.948Z,6.06
2023-12-04T09:32:09.289Z,5.98
2023-12-04T09:34:36.863Z,5.92
2023-12-04T09:37:09.062Z,5.93
2023-12-04T09:39:39.055Z,6.09
2023-12-04T09:42:07.431Z,6.14
2023-12-04T09:44:37.819Z,5.99
2023-12-04T09:47:06.219Z,6.24
2023-12-04T09:49:33.662Z,6.25
2023-12-04T09:52:02.667Z,6.28
2023-12-04T09:54:30.730Z,6.22
2023-12-04T09:56:58.771Z,6.44
2023-12-04T09:59:30.576Z,6.44
2023-12-04T10:01:58.846Z,6.48
2023-12-04T10:04:26.593Z,6.42
2023-12-04T10:06:54.010Z,6.53
2023-12-04T10:09:23.494Z,6.58
2023-12-04T10:11:54.377Z,6.52
2023-12-04T10:14:22.254Z,6.56
2023-12-04T10:16:50.908Z,6.75
2023-12-04T10:19:30.382Z,6.82
2023-12-04T10:22:02.109Z,6.87
2023-12-04T10:24:37.594Z,7.02
2023-12-04T10:27:16.084Z,7.23
2023-12-04T10:29:49.132Z,7.14
2023-12-04T10:32:24.611Z,7.07
2023-12-04T10:35:01.662Z,7.23
2023-12-04T10:37:50.672Z,7.38
2023-12-04T10:40:39.213Z,7.29
2023-12-04T10:43:09.682Z,7.53
2023-12-04T10:45:41.536Z,7.58
2023-12-04T10:48:24.469Z,7.48
2023-12-04T10:50:51.855Z,7.53
2023-12-04T10:53:19.056Z,7.73
2023-12-04T10:55:46.860Z,7.68
2023-12-04T10:58:18.469Z,7.73
2023-12-04T11:00:48.046Z,7.78
2023-12-04T11:03:37.115Z,7.88
2023-12-04T11:06:08.948Z,7.92
2023-12-04T11:08:37.444Z,8.05
2023-12-04T11:11:08.845Z,7.79
2023-12-04T11:13:39.139Z,8.05
2023-12-04T11:16:27.711Z,8.31
2023-12-04T11:19:04.372Z,8.13
2023-12-04T11:21:33.743Z,8.12
2023-12-04T11:24:01.801Z,8.20
2023-12-04T11:26:29.439Z,8.37
2023-12-04T11:28:56.996Z,8.38
2023-12-04T11:31:24.725Z,8.30
2023-12-04T11:33:51.938Z,8.43
2023-12-04T11:36:19.261Z,8.44
2023-12-04T11:38:48.209Z,8.54
2023-12-04T11:41:20.873Z,8.79
2023-12-04T11:43:51.315Z,9.08
2023-12-04T11:46:24.288Z,8.81
2023-12-04T11:48:54.417Z,8.86
2023-12-04T11:51:40.263Z,8.74
2023-12-04T11:54:11.647Z,9.02
2023-12-04T11:56:38.919Z,9.19
2023-12-04T11:59:07.453Z,9.13
2023-12-04T12:01:38.273Z,9.15
2023-12-04T12:04:09.273Z,9.31
2023-12-04T12:06:36.764Z,9.20
2023-12-04T12:09:05.140Z,9.18
2023-12-04T12:11:32.500Z,9.30
2023-12-04T12:14:00.575Z,9.43
2023-12-04T12:16:27.799Z,9.55
2023-12-04T12:18:55.431Z,9.47
2023-12-04T12:21:23.831Z,9.48
2023-12-04T12:23:51.097Z,9.65
2023-12-04T12:26:18.274Z,9.59
2023-12-04T12:28:46.431Z,9.67
2023-12-04T12:31:13.701Z,9.56
2023-12-04T12:33:41.182Z,9.62
2023-12-04T12:36:10.011Z,9.68
2023-12-04T12:38:38.518Z,9.71
2023-12-04T12:41:08.526Z,10.06
2023-12-04T12:43:35.853Z,9.93
2023-12-04T12:46:06.769Z,9.79
2023-12-04T12:48:34.174Z,9.71
2023-12-04T12:51:03.716Z,9.92
2023-12-04T12:53:33.830Z,10.01
2023-12-04T12:56:02.101Z,9.86
2023-12-04T12:58:29.615Z,9.95
2023-12-04T13:00:57.475Z,10.10
2023-12-04T13:03:25.969Z,10.05
2023-12-04T13:05:53.653Z,9.95
2023-12-04T13:08:21.501Z,9.87
2023-12-04T13:10:48.731Z,9.92
2023-12-04T13:13:16.120Z,9.81
2023-12-04T13:15:43.697Z,9.86
2023-12-04T13:18:12.871Z,10.05
2023-12-04T13:20:40.164Z,9.99
2023-12-04T13:23:07.471Z,9.92
2023-12-04T13:25:34.988Z,10.05
2023-12-04T13:28:02.299Z,10.11
2023-12-04T13:30:29.616Z,10.26
2023-12-04T13:32:57.040Z,10.27
2023-12-04T13:35:24.344Z,10.51
2023-12-04T13:37:56.523Z,10.43
2023-12-04T13:40:27.411Z,10.47
2023-12-04T13:43:13.952Z,10.40
2023-12-04T13:45:41.253Z,10.38
2023-12-04T13:48:08.751Z,10.30
2023-12-04T13:50:36.726Z,10.13
2023-12-04T13:53:04.547Z,10.33
2023-12-04T13:55:48.994Z,10.52
2023-12-04T13:58:36.707Z,10.49
2023-12-04T14:01:14.861Z,10.39
2023-12-04T14:03:44.095Z,10.32
2023-12-04T14:06:12.064Z,10.11
2023-12-04T14:08:39.761Z,9.98
2023-12-04T14:11:07.308Z,10.05
2023-12-04T14:13:34.897Z,10.20
2023-12-04T14:16:05.060Z,10.09
2023-12-04T14:18:33.751Z,10.07
2023-12-04T14:21:01.071Z,9.99
2023-12-04T14:23:28.424Z,10.05
2023-12-04T14:25:56.143Z,10.11
2023-12-04T14:28:29.022Z,9.93
2023-12-04T14:31:00.189Z,9.90
2023-12-04T14:33:27.503Z,9.88
2023-12-04T14:35:55.533Z,9.97
2023-12-04T14:38:27.921Z,10.05
2023-12-04T14:40:59.966Z,10.00
2023-12-04T14:43:28.671Z,9.92
2023-12-04T14:45:55.865Z,10.13
2023-12-04T14:48:23.649Z,10.08
2023-12-04T14:50:51.090Z,10.08
2023-12-04T14:53:30.332Z,9.96
2023-12-04T14:56:35.275Z,10.03
2023-12-04T14:59:07.012Z,9.96
2023-12-04T15:02:00.250Z,10.18
2023-12-04T15:04:27.625Z,10.10
2023-12-04T15:07:13.436Z,10.10
2023-12-04T15:09:46.387Z,10.39
2023-12-04T15:12:13.733Z,10.14
2023-12-04T15:15:01.314Z,10.04
2023-12-04T15:17:35.575Z,10.20
2023-12-04T15:20:11.716Z,10.12
2023-12-04T15:22:39.069Z,10.39
2023-12-04T15:25:12.483Z,10.12
2023-12-04T15:27:39.778Z,10.30
2023-12-04T15:30:09.452Z,10.27
2023-12-04T15:32:36.732Z,10.31
2023-12-04T15:35:06.118Z,10.27
2023-12-04T15:37:35.191Z,10.23
2023-12-04T15:40:02.795Z,10.36
2023-12-04T15:42:30.113Z,10.39
2023-12-04T15:44:57.423Z,10.30
2023-12-04T15:47:26.975Z,10.38
2023-12-04T15:49:54.318Z,10.45
2023-12-04T15:52:25.923Z,10.35
2023-12-04T15:54:53.573Z,10.38
2023-12-04T15:57:21.003Z,10.30
2023-12-04T15:59:48.370Z,10.42
2023-12-04T16:02:15.701Z,10.30
2023-12-04T16:04:43.670Z,10.52
2023-12-04T16:07:11.002Z,10.51
2023-12-04T16:09:38.303Z,10.53
2023-12-04T16:12:06.848Z,10.48
2023-12-04T16:14:34.015Z,10.62
2023-12-04T16:17:01.220Z,10.62
2023-12-04T16:19:30.986Z,10.62
2023-12-04T16:21:58.330Z,10.70
2023-12-04T16:24:25.550Z,10.67
2023-12-04T16:26:54.471Z,10.75
2023-12-04T16:29:21.733Z,10.72
2023-12-04T16:31:48.896Z,10.81
2023-12-04T16:34:16.322Z,10.96
2023-12-04T16:36:43.713Z,10.62
2023-12-04T16:39:11.014Z,10.76
2023-12-04T16:41:38.316Z,10.67
2023-12-04T16:44:06.134Z,10.68
2023-12-04T16:46:33.442Z,10.98
2023-12-04T16:49:00.984Z,10.81
2023-12-04T16:51:28.352Z,10.72
2023-12-04T16:53:56.858Z,10.61
2023-12-04T16:56:24.339Z,10.50
2023-12-04T16:58:51.570Z,10.51
2023-12-04T17:01:18.727Z,10.64
2023-12-04T17:03:46.076Z,10.56
2023-12-04T17:06:13.430Z,10.62
2023-12-04T17:08:40.808Z,10.42
2023-12-04T17:11:08.511Z,10.48
2023-12-04T17:13:38.754Z,10.51
2023-12-04T17:16:06.999Z,10.53
2023-12-04T17:18:34.267Z,10.53
2023-12-04T17:21:01.591Z,10.62
2023-12-04T17:23:28.979Z,10.76
2023-12-04T17:25:56.335Z,10.64
2023-12-04T17:28:24.447Z,10.69
2023-12-04T17:30:52.437Z,10.61
2023-12-04T17:33:21.348Z,10.65
2023-12-04T17:35:48.758Z,10.87
2023-12-04T17:38:16.056Z,10.80
2023-12-04T17:40:43.225Z,10.68
2023-12-04T17:43:11.768Z,10.76
2023-12-04T17:45:39.366Z,10.84
2023-12-04T17:48:07.129Z,10.89
2023-12-04T17:50:34.560Z,10.73
2023-12-04T17:53:01.828Z,10.87
2023-12-04T17:55:31.168Z,10.71
2023-12-04T17:57:59.772Z,10.85
2023-12-04T18:00:27.196Z,10.84
2023-12-04T18:02:54.456Z,10.98
2023-12-04T18:05:23.889Z,11.01
2023-12-04T18:07:51.324Z,11.07
2023-12-04T18:10:18.866Z,10.88
2023-12-04T18:12:47.755Z,10.95
2023-12-04T18:15:16.572Z,11.03
2023-12-04T18:17:44.252Z,10.83
2023-12-04T18:20:14.685Z,10.89
2023-12-04T18:22:46.100Z,11.03
2023-12-04T18:25:14.120Z,11.13
2023-12-04T18:27:41.895Z,11.40
2023-12-04T18:30:10.905Z,11.09
2023-12-04T18:32:38.666Z,11.08
2023-12-04T18:35:06.752Z,11.16
2023-12-04T18:37:51.724Z,11.23
2023-12-04T18:40:20.465Z,11.51
2023-12-04T18:42:48.173Z,11.63
2023-12-04T18:45:15.941Z,11.51
2023-12-04T18:47:45.494Z,11.69
2023-12-04T18:50:13.733Z,11.62
2023-12-04T18:52:41.249Z,11.75
2023-12-04T18:55:08.889Z,11.43
2023-12-04T18:57:36.170Z,11.18
2023-12-04T19:02:32.676Z,11.41
2023-12-04T19:05:00.079Z,11.43
2023-12-04T19:07:27.786Z,11.18
2023-12-04T19:09:55.045Z,11.01
2023-12-04T19:12:22.387Z,11.05
2023-12-04T19:14:51.844Z,11.06
2023-12-04T19:17:19.204Z,11.08
2023-12-04T19:19:47.416Z,10.97
2023-12-04T19:22:14.800Z,10.94
2023-12-04T19:24:42.174Z,10.86
2023-12-04T19:27:19.678Z,11.11
2023-12-04T19:29:49.837Z,11.00
2023-12-04T19:32:20.735Z,11.27
2023-12-04T19:34:49.222Z,11.28
2023-12-04T19:37:16.409Z,10.73
2023-12-04T19:39:49.620Z,10.75
2023-12-04T19:42:16.891Z,10.87
2023-12-04T19:44:45.124Z,11.00
2023-12-04T19:47:12.640Z,11.01
2023-12-04T19:49:44.179Z,10.88
2023-12-04T19:52:12.592Z,11.09
2023-12-04T19:54:43.297Z,11.26
2023-12-04T19:57:11.333Z,10.96
2023-12-04T19:59:38.703Z,11.02
2023-12-04T20:02:06.175Z,11.04
2023-12-04T20:04:35.394Z,11.20
2023-12-04T20:07:04.224Z,10.93
2023-12-04T20:09:31.551Z,10.99
2023-12-04T20:11:58.768Z,11.12
2023-12-04T20:14:26.012Z,11.16
2023-12-04T20:16:53.282Z,10.93
2023-12-04T20:19:20.666Z,10.95
2023-12-04T20:21:47.986Z,11.06
2023-12-04T20:24:16.050Z,11.13
2023-12-04T20:26:43.340Z,11.11
2023-12-04T20:29:10.778Z,10.90
2023-12-04T20:31:38.852Z,11.11
2023-12-04T20:34:06.883Z,11.03
2023-12-04T20:36:36.572Z,10.93
2023-12-04T20:39:09.727Z,10.84
2023-12-04T20:41:38.169Z,10.91
2023-12-04T20:44:06.322Z,10.84
2023-12-04T20:46:33.660Z,10.79
2023-12-04T20:49:03.065Z,10.80
2023-12-04T20:51:31.480Z,10.88
2023-12-04T20:53:58.697Z,10.85
2023-12-04T20:56:25.964Z,10.76
2023-12-04T20:58:59.054Z,10.69
2023-12-04T21:01:26.403Z,10.60
2023-12-04T21:03:53.991Z,10.67
2023-12-04T21:06:21.366Z,10.68
2023-12-04T21:08:48.616Z,11.05
2023-12-04T21:11:15.871Z,10.80
2023-12-04T21:13:43.149Z,10.80
2023-12-04T21:16:10.798Z,11.11
2023-12-04T21:18:38.107Z,11.12
2023-12-04T21:21:05.735Z,11.10
2023-12-04T21:23:33.017Z,11.01
2023-12-04T21:26:00.252Z,11.00
2023-12-04T21:28:27.559Z,11.07
2023-12-04T21:30:57.123Z,11.01
2023-12-04T21:33:26.435Z,10.96
2023-12-04T21:35:53.855Z,11.43
2023-12-04T21:38:21.858Z,11.42
2023-12-04T21:40:49.055Z,11.10
2023-12-04T21:43:16.314Z,11.59
2023-12-04T21:45:43.527Z,11.50
2023-12-04T21:48:11.110Z,11.52
2023-12-04T21:50:38.388Z,11.50
2023-12-04T21:53:05.691Z,11.48
2023-12-04T21:55:32.940Z,11.60
2023-12-04T21:58:00.111Z,11.61
2023-12-04T22:00:29.221Z,11.76
2023-12-04T22:02:56.669Z,11.40
2023-12-04T22:05:23.865Z,11.08
2023-12-04T22:07:51.074Z,11.20
2023-12-04T22:10:18.304Z,10.69
2023-12-04T22:12:45.665Z,10.62
2023-12-04T22:15:13.093Z,10.66
2023-12-04T22:17:41.618Z,10.81
2023-12-04T22:20:09.367Z,10.80
2023-12-04T22:22:36.653Z,10.74
2023-12-04T22:25:04.497Z,10.56
2023-12-04T22:27:37.878Z,10.48
2023-12-04T22:30:06.717Z,10.60
2023-12-04T22:32:37.431Z,10.81
2023-12-04T22:35:06.156Z,10.63
2023-12-04T22:37:33.607Z,10.72
2023-12-04T22:40:00.995Z,10.63
2023-12-04T22:42:28.312Z,10.68
2023-12-04T22:44:55.663Z,10.42
2023-12-04T22:47:22.855Z,10.84
2023-12-04T22:49:50.123Z,10.64
2023-12-04T22:52:17.368Z,10.55
2023-12-04T22:54:44.912Z,10.40
2023-12-04T22:57:12.322Z,10.35
2023-12-04T22:59:39.628Z,10.62
2023-12-04T23:02:06.863Z,10.65
2023-12-04T23:04:44.898Z,10.63
2023-12-04T23:07:12.301Z,10.45
2023-12-04T23:09:39.730Z,10.39
2023-12-04T23:12:07.239Z,10.50
2023-12-04T23:14:34.497Z,10.43
2023-12-04T23:17:01.721Z,10.44
2023-12-04T23:19:29.265Z,10.40
2023-12-04T23:21:59.652Z,10.69
2023-12-04T23:24:26.982Z,10.49
2023-12-04T23:26:54.258Z,10.51
2023-12-04T23:29:22.308Z,10.63
2023-12-04T23:31:49.519Z,10.54
2023-12-04T23:34:16.973Z,10.84
2023-12-04T23:36:44.391Z,11.01
2023-12-04T23:39:36.494Z,10.71
2023-12-04T23:42:03.939Z,10.57
2023-12-04T23:44:31.183Z,10.56
2023-12-04T23:46:59.251Z,10.48
2023-12-04T23:49:26.450Z,10.63
2023-12-04T23:51:55.877Z,10.52
2023-12-04T23:54:28.014Z,10.20
2023-12-04T23:56:55.258Z,10.28
2023-12-04T23:59:41.063Z,10.19
